Terminal Aerodrome Forecast
Issued by NWS Wilmington, OH

Current Version | Previous Version | Graphics & Text | Print | Product List | Glossary On
Versions: 1 2 3 4 5 6 7 8 9 10 11 12 13 14 15 16 17 18 19 20 21 22 23
000
FTUS41 KILN 311120
TAFCVG
TAF
KCVG 311120Z 3112/0118 19003KT 5SM BR SCT250
     FM311400 23006KT P6SM FEW025 SCT150
     FM311800 24006KT P6SM VCSH BKN035
     FM010100 00000KT P6SM SCT250
     FM010700 00000KT 4SM BR SKC
      TEMPO 0108/0112 2SM BR SCT003
     FM011300 24005KT P6SM SCT025=

USA.gov is the U.S. government's official web portal to all federal, state and local government web resources and services.